createdAt,value
2023-04-29T00:01:59.931Z,29.80
2023-04-29T00:04:26.575Z,30.85
2023-04-29T00:06:53.904Z,33.72
2023-04-29T00:09:21.740Z,31.73
2023-04-29T00:11:48.238Z,31.77
2023-04-29T00:14:14.626Z,31.85
2023-04-29T00:16:41.122Z,31.98
2023-04-29T00:19:07.566Z,34.60
2023-04-29T00:21:33.948Z,35.00
2023-04-29T00:24:00.430Z,34.83
2023-04-29T00:26:26.803Z,37.22
2023-04-29T00:28:53.266Z,39.95
2023-04-29T00:31:21.647Z,41.42
2023-04-29T00:33:48.226Z,40.08
2023-04-29T00:36:14.992Z,39.13
2023-04-29T00:38:41.487Z,39.83
2023-04-29T00:41:08.351Z,40.30
2023-04-29T00:43:34.806Z,42.85
2023-04-29T00:46:01.297Z,43.08
2023-04-29T00:48:27.814Z,42.95
2023-04-29T00:50:54.271Z,43.70
2023-04-29T00:53:22.974Z,44.35
2023-04-29T00:55:51.566Z,45.17
2023-04-29T00:58:19.532Z,42.10
2023-04-29T01:00:46.880Z,44.65
2023-04-29T01:03:13.860Z,45.70
2023-04-29T01:05:40.544Z,42.63
2023-04-29T01:08:33.983Z,43.42
2023-04-29T01:11:11.532Z,42.97
2023-04-29T01:13:46.128Z,41.30
2023-04-29T01:16:23.292Z,44.55
2023-04-29T01:18:54.861Z,39.75
2023-04-29T01:21:25.949Z,39.78
2023-04-29T01:23:56.349Z,39.92
2023-04-29T01:26:26.868Z,40.87
2023-04-29T01:29:27.808Z,39.85
2023-04-29T01:32:09.020Z,42.08
2023-04-29T01:34:58.953Z,40.97
2023-04-29T01:37:49.406Z,40.28
2023-04-29T01:40:22.707Z,39.42
2023-04-29T01:43:12.606Z,40.53
2023-04-29T01:45:44.076Z,40.63
2023-04-29T01:48:12.726Z,40.42
2023-04-29T01:50:39.939Z,39.50
2023-04-29T01:53:15.772Z,42.40
2023-04-29T01:55:43.875Z,42.40
2023-04-29T01:58:16.791Z,41.28
2023-04-29T02:01:06.903Z,41.53
2023-04-29T02:03:36.295Z,43.30
2023-04-29T02:06:06.949Z,40.00
2023-04-29T02:08:34.270Z,37.78
2023-04-29T02:11:01.434Z,37.55
2023-04-29T02:13:34.504Z,35.90
2023-04-29T02:16:09.506Z,35.03
2023-04-29T02:18:37.770Z,33.45
2023-04-29T02:21:06.019Z,34.10
2023-04-29T02:23:37.775Z,32.85
2023-04-29T02:26:07.213Z,32.33
2023-04-29T02:28:34.924Z,32.28
2023-04-29T02:31:01.777Z,32.80
2023-04-29T02:33:28.607Z,34.42
2023-04-29T02:35:55.116Z,32.90
2023-04-29T02:38:22.534Z,33.38
2023-04-29T02:40:50.073Z,32.95
2023-04-29T02:43:16.565Z,30.02
2023-04-29T02:45:44.868Z,30.40
2023-04-29T02:48:11.365Z,30.10
2023-04-29T02:50:37.909Z,27.98
2023-04-29T02:53:04.531Z,27.58
2023-04-29T02:55:31.392Z,26.52
2023-04-29T02:58:04.130Z,27.35
2023-04-29T03:00:30.658Z,26.52
2023-04-29T03:02:57.608Z,27.27
2023-04-29T03:05:24.239Z,28.30
2023-04-29T03:07:50.749Z,28.00
2023-04-29T03:10:18.114Z,26.40
2023-04-29T03:12:44.698Z,26.50
2023-04-29T03:15:11.268Z,26.08
2023-04-29T03:17:37.839Z,27.02
2023-04-29T03:20:05.412Z,25.75
2023-04-29T03:22:31.870Z,25.70
2023-04-29T03:24:58.328Z,24.95
2023-04-29T03:27:24.825Z,25.67
2023-04-29T03:29:51.399Z,25.20
2023-04-29T03:32:18.065Z,25.63
2023-04-29T03:34:45.507Z,23.58
2023-04-29T03:37:27.427Z,24.17
2023-04-29T03:40:02.405Z,23.60
2023-04-29T03:42:29.105Z,23.73
2023-04-29T03:44:55.575Z,24.30
2023-04-29T03:47:22.057Z,22.85
2023-04-29T03:49:49.148Z,22.95
2023-04-29T03:52:16.231Z,21.92
2023-04-29T03:54:43.666Z,22.65
2023-04-29T03:57:10.199Z,22.88
2023-04-29T03:59:36.606Z,22.67
2023-04-29T04:02:03.241Z,23.02
2023-04-29T04:04:29.899Z,23.85
2023-04-29T04:06:56.599Z,21.55
2023-04-29T04:09:27.122Z,21.77
2023-04-29T04:11:53.615Z,21.00
2023-04-29T04:14:20.438Z,23.10
2023-04-29T04:16:47.053Z,22.20
2023-04-29T04:19:14.113Z,22.55
2023-04-29T04:21:43.743Z,22.08
2023-04-29T04:24:10.497Z,21.83
2023-04-29T04:26:37.867Z,22.33
2023-04-29T04:29:14.184Z,22.60
2023-04-29T04:31:55.627Z,21.23
2023-04-29T04:34:22.791Z,22.83
2023-04-29T04:36:51.443Z,20.67
2023-04-29T04:39:17.902Z,22.75
2023-04-29T04:41:44.938Z,20.52
2023-04-29T04:44:14.364Z,22.75
2023-04-29T04:46:53.035Z,21.27
2023-04-29T04:49:40.258Z,20.92
2023-04-29T04:52:06.993Z,22.35
2023-04-29T04:54:35.415Z,19.38
2023-04-29T04:57:16.443Z,21.27
2023-04-29T04:59:44.489Z,20.42
2023-04-29T05:02:11.042Z,20.98
2023-04-29T05:04:37.521Z,20.30
2023-04-29T05:07:03.981Z,21.88
2023-04-29T05:09:39.643Z,19.60
2023-04-29T05:12:06.128Z,19.55
2023-04-29T05:14:32.614Z,19.00
2023-04-29T05:17:00.050Z,19.63
2023-04-29T05:19:27.208Z,18.23
2023-04-29T05:21:53.886Z,18.73
2023-04-29T05:24:20.609Z,19.48
2023-04-29T05:26:47.451Z,18.90
2023-04-29T05:29:15.557Z,20.25
2023-04-29T05:31:50.295Z,18.73
2023-04-29T05:34:17.567Z,18.75
2023-04-29T05:36:43.987Z,19.13
2023-04-29T05:39:11.487Z,19.38
2023-04-29T05:41:38.510Z,20.02
2023-04-29T05:44:21.589Z,17.58
2023-04-29T05:46:49.033Z,17.60
2023-04-29T05:49:16.550Z,18.40
2023-04-29T05:51:42.914Z,19.30
2023-04-29T05:54:10.520Z,17.83
2023-04-29T05:56:37.280Z,18.75
2023-04-29T05:59:03.660Z,18.00
2023-04-29T06:01:30.213Z,19.13
2023-04-29T06:03:58.654Z,17.73
2023-04-29T06:06:53.548Z,17.77
2023-04-29T06:09:28.335Z,18.13
2023-04-29T06:12:00.961Z,18.58
2023-04-29T06:14:27.392Z,18.40
2023-04-29T06:16:53.974Z,18.40
2023-04-29T06:19:20.693Z,18.00
2023-04-29T06:21:48.194Z,17.52
2023-04-29T06:24:14.572Z,17.02
2023-04-29T06:26:41.004Z,17.60
2023-04-29T06:29:08.270Z,17.50
2023-04-29T06:31:36.144Z,17.38
2023-04-29T06:34:04.131Z,17.40
2023-04-29T06:36:32.170Z,17.58
2023-04-29T06:39:08.445Z,17.38
2023-04-29T06:42:08.617Z,17.92
2023-04-29T06:45:04.723Z,15.85
2023-04-29T06:47:52.449Z,15.45
2023-04-29T06:50:33.824Z,16.85
2023-04-29T06:53:00.261Z,15.93
2023-04-29T06:55:26.727Z,15.95
2023-04-29T06:57:53.416Z,15.63
2023-04-29T07:00:21.066Z,15.35
2023-04-29T07:02:47.878Z,15.98
2023-04-29T07:05:14.678Z,15.95
2023-04-29T07:07:43.054Z,15.60
2023-04-29T07:10:09.874Z,16.20
2023-04-29T07:12:37.167Z,16.35
2023-04-29T07:15:03.820Z,15.63
2023-04-29T07:17:31.400Z,15.93
2023-04-29T07:19:57.938Z,16.88
2023-04-29T07:22:24.542Z,15.93
2023-04-29T07:24:53.883Z,15.75
2023-04-29T07:27:21.060Z,15.82
2023-04-29T07:29:47.487Z,16.17
2023-04-29T07:32:14.499Z,16.08
2023-04-29T07:34:41.198Z,16.20
2023-04-29T07:37:07.680Z,15.88
2023-04-29T07:39:35.378Z,15.98
2023-04-29T07:42:04.466Z,15.90
2023-04-29T07:44:31.313Z,16.08
2023-04-29T07:46:57.771Z,17.80
2023-04-29T07:49:25.944Z,17.90
2023-04-29T07:51:52.382Z,16.80
2023-04-29T07:54:19.576Z,16.98
2023-04-29T07:56:46.445Z,17.27
2023-04-29T07:59:12.838Z,18.50
2023-04-29T08:01:41.231Z,18.30
2023-04-29T08:04:08.145Z,17.80
2023-04-29T08:06:42.559Z,18.08
2023-04-29T08:09:21.134Z,18.17
2023-04-29T08:11:47.567Z,18.20
2023-04-29T08:14:14.298Z,20.00
2023-04-29T08:16:40.708Z,19.38
2023-04-29T08:19:07.102Z,20.25
2023-04-29T08:21:34.801Z,20.35
2023-04-29T08:24:01.364Z,19.30
2023-04-29T08:26:28.158Z,19.73
2023-04-29T08:28:54.548Z,19.35
2023-04-29T08:31:21.867Z,19.85
2023-04-29T08:33:48.645Z,20.38
2023-04-29T08:36:15.447Z,20.85
2023-04-29T08:38:41.892Z,21.23
2023-04-29T08:41:09.705Z,22.58
2023-04-29T08:43:42.670Z,22.40
2023-04-29T08:46:10.622Z,23.95
2023-04-29T08:48:41.302Z,21.88
2023-04-29T08:51:12.754Z,22.90
2023-04-29T08:53:39.178Z,21.58
2023-04-29T08:56:16.005Z,22.73
2023-04-29T08:58:43.380Z,23.73
2023-04-29T09:01:10.940Z,21.75
2023-04-29T09:03:42.806Z,23.70
2023-04-29T09:06:10.776Z,24.13
2023-04-29T09:08:37.471Z,21.95
2023-04-29T09:11:05.206Z,22.70
2023-04-29T09:13:32.729Z,21.88
2023-04-29T09:15:59.766Z,23.35
2023-04-29T09:18:46.826Z,22.63
2023-04-29T09:21:19.023Z,20.73
2023-04-29T09:23:48.568Z,22.17
2023-04-29T09:26:15.781Z,21.33
2023-04-29T09:28:44.891Z,23.00
2023-04-29T09:31:12.488Z,21.65
2023-04-29T09:33:57.045Z,20.48
2023-04-29T09:36:40.492Z,20.58
2023-04-29T09:39:11.719Z,23.58
2023-04-29T09:41:57.112Z,22.30
2023-04-29T09:44:25.435Z,20.33
2023-04-29T09:47:29.329Z,21.33
2023-04-29T09:50:12.053Z,20.90
2023-04-29T09:52:42.341Z,21.77
2023-04-29T09:55:09.637Z,19.92
2023-04-29T09:57:44.902Z,21.10
2023-04-29T10:00:16.391Z,19.55
2023-04-29T10:02:46.597Z,19.92
2023-04-29T10:05:14.383Z,19.02
2023-04-29T10:07:41.655Z,18.88
2023-04-29T10:10:10.738Z,19.05
2023-04-29T10:12:40.891Z,19.98
2023-04-29T10:15:23.592Z,20.55
2023-04-29T10:17:54.809Z,17.95
2023-04-29T10:20:25.460Z,21.30
2023-04-29T10:22:54.730Z,19.00
2023-04-29T10:25:22.868Z,19.88
2023-04-29T10:27:52.968Z,21.38
2023-04-29T10:30:20.350Z,20.02
2023-04-29T10:32:51.937Z,18.17
2023-04-29T10:35:23.177Z,18.77
2023-04-29T10:37:50.432Z,19.55
2023-04-29T10:40:22.181Z,19.88
2023-04-29T10:42:53.577Z,19.08
2023-04-29T10:45:31.151Z,19.13
2023-04-29T10:48:06.764Z,20.35
2023-04-29T10:50:35.681Z,18.52
2023-04-29T10:53:03.829Z,18.73
2023-04-29T10:55:31.160Z,18.70
2023-04-29T10:57:57.991Z,18.95
2023-04-29T11:00:29.888Z,19.45
2023-04-29T11:02:58.654Z,18.63
2023-04-29T11:05:36.225Z,18.70
2023-04-29T11:08:24.607Z,18.52
2023-04-29T11:10:54.667Z,16.58
2023-04-29T11:13:25.975Z,15.98
2023-04-29T11:15:53.836Z,16.38
2023-04-29T11:18:20.760Z,16.40
2023-04-29T11:21:05.819Z,15.82
2023-04-29T11:23:36.680Z,15.88
2023-04-29T11:26:03.749Z,14.88
2023-04-29T11:28:31.764Z,16.30
2023-04-29T11:30:59.570Z,15.57
2023-04-29T11:33:27.818Z,16.30
2023-04-29T11:35:54.908Z,15.05
2023-04-29T11:38:31.281Z,15.52
2023-04-29T11:40:58.190Z,14.48
2023-04-29T11:43:25.303Z,14.85
2023-04-29T11:45:53.394Z,14.98
2023-04-29T11:48:21.065Z,15.18
2023-04-29T11:50:49.552Z,14.57
2023-04-29T11:53:16.105Z,13.77
2023-04-29T11:55:43.539Z,13.68
2023-04-29T11:58:10.704Z,13.45
2023-04-29T12:00:37.381Z,12.00
2023-04-29T12:03:34.147Z,11.82
2023-04-29T12:06:01.922Z,11.45
2023-04-29T12:08:30.702Z,11.52
2023-04-29T12:10:58.989Z,11.48
2023-04-29T12:13:29.306Z,10.63
2023-04-29T12:15:56.970Z,10.15
2023-04-29T12:18:23.788Z,8.95
2023-04-29T12:20:57.465Z,8.27
2023-04-29T12:23:28.393Z,9.18
2023-04-29T12:26:00.202Z,9.02
2023-04-29T12:28:27.273Z,8.45
2023-04-29T12:30:54.813Z,8.52
2023-04-29T12:33:24.444Z,8.15
2023-04-29T12:35:54.076Z,8.50
2023-04-29T12:38:27.883Z,8.10
2023-04-29T12:40:55.297Z,9.05
2023-04-29T12:43:31.733Z,9.18
2023-04-29T12:46:03.599Z,9.50
2023-04-29T12:48:34.137Z,9.48
2023-04-29T12:51:03.967Z,9.55
2023-04-29T12:53:31.092Z,9.20
2023-04-29T12:55:58.036Z,9.07
2023-04-29T12:58:24.528Z,9.65
2023-04-29T13:00:50.997Z,9.10
2023-04-29T13:03:19.170Z,8.75
2023-04-29T13:05:51.261Z,9.00
2023-04-29T13:08:18.172Z,9.77
2023-04-29T13:10:44.644Z,9.07
2023-04-29T13:13:10.994Z,9.00
2023-04-29T13:15:41.224Z,9.23
2023-04-29T13:18:08.013Z,9.43
2023-04-29T13:20:41.145Z,8.07
2023-04-29T13:23:09.209Z,8.18
2023-04-29T13:25:35.906Z,8.13
2023-04-29T13:28:02.669Z,7.85
2023-04-29T13:30:29.086Z,8.18
2023-04-29T13:32:59.883Z,8.10
2023-04-29T13:35:30.900Z,7.93
2023-04-29T13:37:57.366Z,7.63
2023-04-29T13:40:27.869Z,8.30
2023-04-29T13:43:02.142Z,6.32
2023-04-29T13:45:39.011Z,6.13
2023-04-29T13:48:20.814Z,6.32
2023-04-29T13:53:46.185Z,6.88
2023-04-29T13:59:19.788Z,6.50
2023-04-29T14:03:53.603Z,7.63
2023-04-29T14:06:20.401Z,7.75
2023-04-29T14:08:46.807Z,7.05
2023-04-29T14:11:13.259Z,7.43
2023-04-29T14:13:40.206Z,7.88
2023-04-29T14:16:07.253Z,8.00
2023-04-29T14:18:33.762Z,7.53
2023-04-29T14:21:00.179Z,7.38
2023-04-29T14:23:26.573Z,7.07
2023-04-29T14:25:58.819Z,7.25
2023-04-29T14:28:33.161Z,7.50
2023-04-29T14:30:59.605Z,7.13
2023-04-29T14:33:26.278Z,7.25
2023-04-29T14:35:53.482Z,7.22
2023-04-29T14:38:19.874Z,7.20
2023-04-29T14:40:46.363Z,7.53
2023-04-29T14:43:12.797Z,7.35
2023-04-29T14:45:39.182Z,7.68
2023-04-29T14:48:05.689Z,7.63
2023-04-29T14:50:32.136Z,6.97
2023-04-29T14:52:59.772Z,7.00
2023-04-29T14:55:26.141Z,6.50
2023-04-29T14:57:52.535Z,6.93
2023-04-29T15:00:19.289Z,6.07
2023-04-29T15:02:45.851Z,6.72
2023-04-29T15:05:12.700Z,6.63
2023-04-29T15:07:39.178Z,7.10
2023-04-29T15:10:07.742Z,6.47
2023-04-29T15:12:34.527Z,7.03
2023-04-29T15:15:00.955Z,6.70
2023-04-29T15:17:28.462Z,7.45
2023-04-29T15:19:54.975Z,7.25
2023-04-29T15:22:21.370Z,7.03
2023-04-29T15:27:16.211Z,6.70
2023-04-29T15:29:42.767Z,6.53
2023-04-29T15:32:10.439Z,6.18
2023-04-29T15:34:37.002Z,7.88
2023-04-29T15:37:03.438Z,6.78
2023-04-29T15:39:29.884Z,6.50
2023-04-29T15:41:58.599Z,7.78
2023-04-29T15:44:24.982Z,6.88
2023-04-29T15:46:51.577Z,6.15
2023-04-29T15:49:17.972Z,6.70
2023-04-29T15:51:44.350Z,5.63
2023-04-29T15:54:10.723Z,6.53
2023-04-29T15:56:37.196Z,6.60
2023-04-29T15:59:03.839Z,6.75
2023-04-29T16:01:30.798Z,6.40
2023-04-29T16:03:57.257Z,6.18
2023-04-29T16:06:23.696Z,6.13
2023-04-29T16:08:50.256Z,5.95
2023-04-29T16:11:16.673Z,5.78
2023-04-29T16:13:43.119Z,6.45
2023-04-29T16:16:09.553Z,6.07
2023-04-29T16:18:36.050Z,6.65
2023-04-29T16:21:02.824Z,6.55
2023-04-29T16:23:29.272Z,6.25
2023-04-29T16:25:55.766Z,6.65
2023-04-29T16:28:22.272Z,6.03
2023-04-29T16:30:48.882Z,6.78
2023-04-29T16:33:16.246Z,6.15
2023-04-29T16:35:42.705Z,5.22
2023-04-29T16:38:09.083Z,5.82
2023-04-29T16:40:35.575Z,5.90
2023-04-29T16:43:01.992Z,5.85
2023-04-29T16:45:28.482Z,6.18
2023-04-29T16:47:55.059Z,6.47
2023-04-29T16:50:21.701Z,5.97
2023-04-29T16:52:48.516Z,6.30
2023-04-29T16:55:15.126Z,6.95
2023-04-29T16:57:42.188Z,5.70
2023-04-29T17:00:10.227Z,5.60
2023-04-29T17:02:37.472Z,6.00
2023-04-29T17:05:04.228Z,6.13
2023-04-29T17:07:31.673Z,5.75
2023-04-29T17:09:58.257Z,5.20
2023-04-29T17:12:25.315Z,7.80
2023-04-29T17:14:51.803Z,9.93
2023-04-29T17:17:18.724Z,11.18
2023-04-29T17:19:49.782Z,13.07
2023-04-29T17:22:16.969Z,10.00
2023-04-29T17:24:47.862Z,15.07
2023-04-29T17:27:14.490Z,11.63
2023-04-29T17:29:41.632Z,9.23
2023-04-29T17:32:12.437Z,7.93
2023-04-29T17:34:39.087Z,10.27
2023-04-29T17:37:06.622Z,13.45
2023-04-29T17:39:33.941Z,15.48
2023-04-29T17:42:01.258Z,10.38
2023-04-29T17:44:27.648Z,7.90
2023-04-29T17:46:54.335Z,7.55
2023-04-29T17:49:20.734Z,6.82
2023-04-29T17:51:47.174Z,6.38
2023-04-29T17:54:13.604Z,6.10
2023-04-29T17:56:40.026Z,5.82
2023-04-29T17:59:07.946Z,5.38
2023-04-29T18:01:35.738Z,5.22
2023-04-29T18:04:02.260Z,5.45
2023-04-29T18:06:30.214Z,5.30
2023-04-29T18:08:56.935Z,4.65
2023-04-29T18:11:23.383Z,4.57
2023-04-29T18:13:52.810Z,4.63
2023-04-29T18:16:19.272Z,4.63
2023-04-29T18:18:46.334Z,5.07
2023-04-29T18:21:13.276Z,4.72
2023-04-29T18:23:40.578Z,4.50
2023-04-29T18:26:08.247Z,4.28
2023-04-29T18:28:35.121Z,4.50
2023-04-29T18:31:01.879Z,4.45
2023-04-29T18:33:30.843Z,4.40
2023-04-29T18:35:57.519Z,4.53
2023-04-29T18:38:24.677Z,4.57
2023-04-29T18:40:51.455Z,4.40
2023-04-29T18:43:22.209Z,4.30
2023-04-29T18:45:48.696Z,5.40
2023-04-29T18:48:15.305Z,4.35
2023-04-29T18:50:42.149Z,5.30
2023-04-29T18:53:08.557Z,5.40
2023-04-29T18:55:35.875Z,5.13
2023-04-29T18:58:02.267Z,5.15
2023-04-29T19:00:29.471Z,4.95
2023-04-29T19:02:56.492Z,4.95
2023-04-29T19:05:23.429Z,5.75
2023-04-29T19:07:49.827Z,5.28
2023-04-29T19:10:16.337Z,5.10
2023-04-29T19:12:42.882Z,5.70
2023-04-29T19:15:09.949Z,5.25
2023-04-29T19:17:36.422Z,6.22
2023-04-29T19:20:03.345Z,5.80
2023-04-29T19:22:30.940Z,5.60
2023-04-29T19:24:57.416Z,5.75
2023-04-29T19:27:24.084Z,5.82
2023-04-29T19:29:51.011Z,5.82
2023-04-29T19:32:17.500Z,6.07
2023-04-29T19:34:44.176Z,6.45
2023-04-29T19:37:10.598Z,6.70
2023-04-29T19:39:36.979Z,6.72
2023-04-29T19:42:03.932Z,6.55
2023-04-29T19:44:30.748Z,6.57
2023-04-29T19:46:57.757Z,7.18
2023-04-29T19:49:24.459Z,7.28
2023-04-29T19:51:51.681Z,7.35
2023-04-29T19:54:18.147Z,8.13
2023-04-29T19:56:44.624Z,8.57
2023-04-29T19:59:13.162Z,9.05
2023-04-29T20:01:39.921Z,8.75
2023-04-29T20:04:06.788Z,8.68
2023-04-29T20:06:34.962Z,9.05
2023-04-29T20:09:01.869Z,9.32
2023-04-29T20:11:28.288Z,9.55
2023-04-29T20:13:55.186Z,9.10
2023-04-29T20:16:23.209Z,8.73
2023-04-29T20:18:49.664Z,7.80
2023-04-29T20:21:16.079Z,8.73
2023-04-29T20:23:42.947Z,7.85
2023-04-29T20:26:09.304Z,8.43
2023-04-29T20:28:36.053Z,8.35
2023-04-29T20:31:02.722Z,7.68
2023-04-29T20:33:29.163Z,7.55
2023-04-29T20:35:57.315Z,8.02
2023-04-29T20:38:24.716Z,8.27
2023-04-29T20:40:54.291Z,7.60
2023-04-29T20:43:20.695Z,8.55
2023-04-29T20:45:47.116Z,7.28
2023-04-29T20:48:13.551Z,7.70
2023-04-29T20:50:39.932Z,7.82
2023-04-29T20:53:06.990Z,7.78
2023-04-29T20:55:33.550Z,7.65
2023-04-29T20:57:59.934Z,7.43
2023-04-29T21:00:26.419Z,6.70
2023-04-29T21:02:52.844Z,6.85
2023-04-29T21:05:19.603Z,6.43
2023-04-29T21:07:46.019Z,6.20
2023-04-29T21:10:13.223Z,6.60
2023-04-29T21:12:40.368Z,6.35
2023-04-29T21:15:07.262Z,6.82
2023-04-29T21:17:33.646Z,7.00
2023-04-29T21:20:00.101Z,6.65
2023-04-29T21:22:26.569Z,7.18
2023-04-29T21:24:53.014Z,6.95
2023-04-29T21:27:19.615Z,7.18
2023-04-29T21:29:46.012Z,6.68
2023-04-29T21:32:12.440Z,7.28
2023-04-29T21:34:38.859Z,7.30
2023-04-29T21:37:05.366Z,6.57
2023-04-29T21:39:32.098Z,6.57
2023-04-29T21:42:00.582Z,7.07
2023-04-29T21:44:27.065Z,7.03
2023-04-29T21:46:53.734Z,6.72
2023-04-29T21:49:20.907Z,7.38
2023-04-29T21:51:47.835Z,7.05
2023-04-29T21:54:14.233Z,7.03
2023-04-29T21:56:40.789Z,5.93
2023-04-29T21:59:07.273Z,6.85
2023-04-29T22:01:45.437Z,6.72
2023-04-29T22:04:12.011Z,6.85
2023-04-29T22:06:38.496Z,6.03
2023-04-29T22:09:06.473Z,6.35
2023-04-29T22:11:33.184Z,6.63
2023-04-29T22:13:59.631Z,5.68
2023-04-29T22:16:26.243Z,6.57
2023-04-29T22:18:52.891Z,7.32
2023-04-29T22:21:19.508Z,6.43
2023-04-29T22:23:46.459Z,6.07
2023-04-29T22:26:12.866Z,5.85
2023-04-29T22:28:39.370Z,6.30
2023-04-29T22:31:06.336Z,6.53
2023-04-29T22:33:34.484Z,6.53
2023-04-29T22:36:01.104Z,7.13
2023-04-29T22:38:27.672Z,7.10
2023-04-29T22:40:54.096Z,7.43
2023-04-29T22:43:20.701Z,8.10
2023-04-29T22:45:52.037Z,8.23
2023-04-29T22:48:18.799Z,8.60
2023-04-29T22:50:52.437Z,8.30
2023-04-29T22:53:20.064Z,7.97
2023-04-29T22:55:54.196Z,8.70
2023-04-29T22:58:21.769Z,8.48
2023-04-29T23:00:56.591Z,8.30
2023-04-29T23:03:23.862Z,8.65
2023-04-29T23:05:50.470Z,8.85
2023-04-29T23:08:16.913Z,8.43
2023-04-29T23:10:48.306Z,9.18
2023-04-29T23:13:14.976Z,8.75
2023-04-29T23:15:41.464Z,8.52
2023-04-29T23:18:08.038Z,8.35
2023-04-29T23:20:34.534Z,7.63
2023-04-29T23:23:01.220Z,8.60
2023-04-29T23:25:27.732Z,8.35
2023-04-29T23:27:55.588Z,7.90
2023-04-29T23:30:22.231Z,7.45
2023-04-29T23:32:48.787Z,7.88
2023-04-29T23:35:15.758Z,8.10
2023-04-29T23:37:42.202Z,7.72
2023-04-29T23:40:09.184Z,8.05
2023-04-29T23:42:35.634Z,8.13
2023-04-29T23:45:02.123Z,8.60
2023-04-29T23:47:28.558Z,9.35
2023-04-29T23:49:55.288Z,8.48
2023-04-29T23:52:22.554Z,8.82
2023-04-29T23:54:48.961Z,9.82
2023-04-29T23:57:15.434Z,9.38
2023-04-29T23:59:42.478Z,8.50
